createdAt,value
2019-03-21T00:02:25.694Z,15.63
2019-03-21T00:04:53.150Z,14.90
2019-03-21T00:07:20.323Z,15.97
2019-03-21T00:10:16.750Z,16.10
2019-03-21T00:12:42.894Z,16.33
2019-03-21T00:15:21.526Z,14.97
2019-03-21T00:17:50.578Z,15.60
2019-03-21T00:20:16.731Z,15.87
2019-03-21T00:22:42.884Z,15.43
2019-03-21T00:25:12.647Z,15.93
2019-03-21T00:27:39.098Z,16.23
2019-03-21T00:30:15.242Z,15.77
2019-03-21T00:32:41.491Z,15.60
2019-03-21T00:35:09.142Z,16.17
2019-03-21T00:37:35.411Z,15.67
2019-03-21T00:40:03.510Z,14.80
2019-03-21T00:42:29.654Z,14.47
2019-03-21T00:44:55.809Z,14.80
2019-03-21T00:47:22.225Z,15.03
2019-03-21T00:49:48.405Z,14.37
2019-03-21T00:52:15.659Z,14.60
2019-03-21T00:54:42.346Z,14.73
2019-03-21T00:57:08.499Z,13.60
2019-03-21T00:59:34.653Z,15.20
2019-03-21T01:02:01.135Z,14.80
2019-03-21T01:04:27.787Z,13.43
2019-03-21T01:06:53.946Z,13.63
2019-03-21T01:09:20.096Z,14.57
2019-03-21T01:11:46.256Z,14.87
2019-03-21T01:14:12.407Z,15.17
2019-03-21T01:16:38.810Z,13.73
2019-03-21T01:19:04.967Z,14.60
2019-03-21T01:21:31.115Z,14.17
2019-03-21T01:23:57.602Z,14.73
2019-03-21T01:26:23.754Z,14.07
2019-03-21T01:28:49.898Z,14.10
2019-03-21T01:31:16.063Z,14.57
2019-03-21T01:33:42.210Z,13.10
2019-03-21T01:36:08.389Z,13.73
2019-03-21T01:38:34.878Z,13.73
2019-03-21T01:41:06.038Z,13.70
2019-03-21T01:43:32.174Z,14.13
2019-03-21T01:45:59.290Z,14.30
2019-03-21T01:48:25.442Z,13.50
2019-03-21T01:50:51.611Z,13.80
2019-03-21T01:53:17.774Z,13.60
2019-03-21T01:55:43.931Z,13.57
2019-03-21T01:58:10.110Z,13.63
2019-03-21T02:00:41.686Z,13.73
2019-03-21T02:03:07.842Z,14.10
2019-03-21T02:05:34.100Z,13.30
2019-03-21T02:08:00.562Z,14.17
2019-03-21T02:10:27.010Z,14.50
2019-03-21T02:12:53.175Z,14.03
2019-03-21T02:15:19.318Z,14.57
2019-03-21T02:17:47.122Z,12.83
2019-03-21T02:20:16.272Z,13.90
2019-03-21T02:22:42.442Z,14.47
2019-03-21T02:25:17.680Z,14.07
2019-03-21T02:27:43.846Z,13.40
2019-03-21T02:30:13.487Z,13.37
2019-03-21T02:32:39.759Z,13.77
2019-03-21T02:35:06.825Z,14.13
2019-03-21T02:37:33.108Z,12.37
2019-03-21T02:40:00.394Z,11.80
2019-03-21T02:42:27.012Z,11.50
2019-03-21T02:45:07.206Z,11.67
2019-03-21T02:47:21.321Z,12.17
2019-03-21T02:49:47.571Z,12.93
2019-03-21T02:52:14.001Z,12.07
2019-03-21T02:54:40.150Z,12.13
2019-03-21T02:57:06.282Z,11.33
2019-03-21T02:59:32.447Z,11.93
2019-03-21T03:01:59.682Z,11.90
2019-03-21T03:04:25.838Z,11.20
2019-03-21T03:06:52.277Z,11.77
2019-03-21T03:09:18.447Z,11.33
2019-03-21T03:11:44.600Z,11.53
2019-03-21T03:14:10.758Z,11.47
2019-03-21T03:16:37.201Z,11.90
2019-03-21T03:19:03.368Z,11.80
2019-03-21T03:21:29.525Z,11.20
2019-03-21T03:23:55.670Z,11.27
2019-03-21T03:26:21.819Z,12.37
2019-03-21T03:28:47.996Z,12.03
2019-03-21T03:31:14.246Z,11.90
2019-03-21T03:33:40.381Z,11.77
2019-03-21T03:36:06.525Z,11.73
2019-03-21T03:38:32.686Z,11.23
2019-03-21T03:41:00.753Z,12.03
2019-03-21T03:43:26.897Z,11.73
2019-03-21T03:45:53.155Z,12.30
2019-03-21T03:48:20.174Z,11.60
2019-03-21T03:50:46.950Z,11.27
2019-03-21T03:53:13.084Z,11.13
2019-03-21T03:55:39.236Z,11.87
2019-03-21T03:58:14.396Z,11.33
2019-03-21T04:00:40.541Z,11.30
2019-03-21T04:03:06.684Z,11.53
2019-03-21T04:05:32.940Z,10.67
2019-03-21T04:07:59.092Z,11.07
2019-03-21T04:10:31.074Z,13.27
2019-03-21T04:12:57.657Z,11.33
2019-03-21T04:15:23.804Z,12.87
2019-03-21T04:17:50.027Z,13.17
2019-03-21T04:20:36.190Z,13.13
2019-03-21T04:23:02.740Z,12.60
2019-03-21T04:25:44.444Z,12.53
2019-03-21T04:28:14.781Z,11.87
2019-03-21T04:30:42.022Z,12.87
2019-03-21T04:33:08.456Z,12.30
2019-03-21T04:35:35.101Z,12.70
2019-03-21T04:38:01.261Z,13.17
2019-03-21T04:40:27.425Z,12.43
2019-03-21T04:42:53.571Z,12.07
2019-03-21T04:45:24.269Z,12.17
2019-03-21T04:47:50.418Z,13.00
2019-03-21T04:50:33.643Z,11.33
2019-03-21T04:52:59.795Z,13.43
2019-03-21T04:55:25.947Z,12.20
2019-03-21T04:57:52.095Z,11.37
2019-03-21T05:00:27.612Z,11.97
2019-03-21T05:03:02.663Z,11.93
2019-03-21T05:05:28.819Z,14.23
2019-03-21T05:07:54.968Z,13.00
2019-03-21T05:10:22.217Z,14.47
2019-03-21T05:12:48.650Z,13.10
2019-03-21T05:15:21.136Z,13.33
2019-03-21T05:17:48.704Z,12.80
2019-03-21T05:20:21.235Z,13.03
2019-03-21T05:22:47.387Z,13.97
2019-03-21T05:25:13.543Z,12.93
2019-03-21T05:27:40.707Z,13.47
2019-03-21T05:30:13.625Z,12.90
2019-03-21T05:32:39.768Z,13.87
2019-03-21T05:35:07.911Z,14.70
2019-03-21T05:37:34.070Z,12.50
2019-03-21T05:40:00.353Z,13.60
2019-03-21T05:42:26.582Z,14.33
2019-03-21T05:44:52.725Z,13.30
2019-03-21T05:47:19.299Z,14.33
2019-03-21T05:49:45.453Z,14.20
2019-03-21T05:52:11.592Z,13.40
2019-03-21T05:54:37.739Z,14.87
2019-03-21T05:57:03.883Z,14.03
2019-03-21T05:59:30.045Z,13.80
2019-03-21T06:01:56.180Z,12.87
2019-03-21T06:04:22.331Z,14.07
2019-03-21T06:07:06.780Z,14.43
2019-03-21T06:09:32.951Z,13.47
2019-03-21T06:12:02.298Z,13.53
2019-03-21T06:14:33.266Z,14.33
2019-03-21T06:17:00.504Z,13.50
2019-03-21T06:19:54.218Z,14.10
2019-03-21T06:22:40.807Z,14.47
2019-03-21T06:25:17.059Z,14.63
2019-03-21T06:27:43.209Z,13.83
2019-03-21T06:30:09.567Z,14.37
2019-03-21T06:32:35.707Z,14.73
2019-03-21T06:35:02.276Z,13.83
2019-03-21T06:37:29.060Z,14.37
2019-03-21T06:39:55.383Z,14.07
2019-03-21T06:42:21.522Z,14.77
2019-03-21T06:44:47.690Z,15.77
2019-03-21T06:47:13.830Z,14.40
2019-03-21T06:49:39.987Z,14.30
2019-03-21T06:52:06.137Z,14.97
2019-03-21T06:54:32.287Z,14.00
2019-03-21T06:56:58.428Z,14.87
2019-03-21T06:59:24.587Z,14.87
2019-03-21T07:01:50.767Z,15.17
2019-03-21T07:04:17.172Z,14.97
2019-03-21T07:06:43.416Z,15.37
2019-03-21T07:09:09.583Z,14.60
2019-03-21T07:11:35.727Z,15.00
2019-03-21T07:14:02.172Z,15.50
2019-03-21T07:16:29.745Z,16.60
2019-03-21T07:18:55.914Z,15.33
2019-03-21T07:21:22.081Z,15.77
2019-03-21T07:23:48.535Z,15.97
2019-03-21T07:26:14.671Z,16.63
2019-03-21T07:28:40.822Z,16.53
2019-03-21T07:31:06.966Z,16.57
2019-03-21T07:33:33.115Z,16.40
2019-03-21T07:35:59.263Z,17.53
2019-03-21T07:38:25.412Z,17.80
2019-03-21T07:40:51.676Z,17.80
2019-03-21T07:43:17.810Z,18.10
2019-03-21T07:45:44.284Z,18.07
2019-03-21T07:48:10.418Z,18.77
2019-03-21T07:50:36.567Z,20.40
2019-03-21T07:53:03.018Z,19.70
2019-03-21T07:55:29.529Z,18.80
2019-03-21T07:57:55.675Z,20.43
2019-03-21T08:00:21.849Z,20.83
2019-03-21T08:02:48.103Z,20.23
2019-03-21T08:05:14.564Z,21.13
2019-03-21T08:07:40.702Z,21.37
2019-03-21T08:10:13.638Z,20.37
2019-03-21T08:12:40.041Z,19.73
2019-03-21T08:15:14.363Z,21.37
2019-03-21T08:17:40.759Z,21.03
2019-03-21T08:20:09.507Z,19.77
2019-03-21T08:22:35.659Z,18.40
2019-03-21T08:25:03.406Z,19.47
2019-03-21T08:27:30.551Z,19.20
2019-03-21T08:29:57.702Z,19.83
2019-03-21T08:32:24.132Z,18.90
2019-03-21T08:34:50.279Z,19.27
2019-03-21T08:37:16.596Z,18.13
2019-03-21T08:39:42.750Z,19.50
2019-03-21T08:42:08.907Z,18.40
2019-03-21T08:44:35.223Z,17.23
2019-03-21T08:47:01.449Z,15.93
2019-03-21T08:49:27.595Z,15.50
2019-03-21T08:51:53.755Z,14.23
2019-03-21T08:54:20.193Z,12.97
2019-03-21T08:56:47.223Z,12.63
2019-03-21T08:59:13.379Z,12.67
2019-03-21T09:01:39.530Z,12.97
2019-03-21T09:04:05.676Z,12.60
2019-03-21T09:06:31.823Z,12.87
2019-03-21T09:08:58.185Z,11.90
2019-03-21T09:11:24.547Z,12.00
2019-03-21T09:13:50.887Z,11.67
2019-03-21T09:16:17.050Z,11.70
2019-03-21T09:18:43.309Z,10.10
2019-03-21T09:21:19.182Z,11.77
2019-03-21T09:23:37.507Z,11.60
2019-03-21T09:26:03.650Z,11.90
2019-03-21T09:28:29.811Z,11.23
2019-03-21T09:30:56.657Z,11.70
2019-03-21T09:33:23.052Z,11.97
2019-03-21T09:35:49.198Z,12.03
2019-03-21T09:38:15.359Z,11.47
2019-03-21T09:40:42.623Z,12.27
2019-03-21T09:43:08.788Z,12.00
2019-03-21T09:45:35.006Z,11.93
2019-03-21T09:48:03.076Z,12.00
2019-03-21T09:50:29.429Z,11.43
2019-03-21T09:52:55.572Z,11.67
2019-03-21T09:55:21.738Z,10.53
2019-03-21T09:57:47.886Z,11.20
2019-03-21T10:00:17.844Z,11.50
2019-03-21T10:02:43.988Z,10.53
2019-03-21T10:05:25.630Z,11.43
2019-03-21T10:07:52.214Z,11.73
2019-03-21T10:10:31.729Z,10.90
2019-03-21T10:12:58.883Z,11.37
2019-03-21T10:15:25.536Z,10.70
2019-03-21T10:17:51.682Z,10.80
2019-03-21T10:20:17.843Z,10.90
2019-03-21T10:22:43.976Z,10.70
2019-03-21T10:25:10.582Z,10.07
2019-03-21T10:27:36.718Z,11.03
2019-03-21T10:30:05.798Z,11.17
2019-03-21T10:32:31.947Z,10.10
2019-03-21T10:34:59.094Z,8.63
2019-03-21T10:37:25.231Z,8.97
2019-03-21T10:39:51.634Z,9.40
2019-03-21T10:42:17.801Z,9.23
2019-03-21T10:44:55.137Z,9.00
2019-03-21T10:47:21.318Z,9.43
2019-03-21T10:49:47.470Z,9.27
2019-03-21T10:52:13.620Z,9.13
2019-03-21T10:54:39.768Z,8.93
2019-03-21T10:57:06.238Z,9.10
2019-03-21T10:59:32.379Z,10.00
2019-03-21T11:02:06.934Z,9.10
2019-03-21T11:04:26.585Z,9.90
2019-03-21T11:06:58.504Z,10.10
2019-03-21T11:09:24.663Z,10.60
2019-03-21T11:11:50.818Z,10.23
2019-03-21T11:14:17.277Z,10.83
2019-03-21T11:16:43.419Z,9.70
2019-03-21T11:19:09.567Z,9.20
2019-03-21T11:21:35.719Z,10.47
2019-03-21T11:24:02.185Z,10.30
2019-03-21T11:26:28.440Z,9.17
2019-03-21T11:28:54.590Z,8.77
2019-03-21T11:31:21.070Z,8.40
2019-03-21T11:33:47.206Z,7.40
2019-03-21T11:36:13.356Z,7.73
2019-03-21T11:38:39.508Z,7.67
2019-03-21T11:41:05.668Z,7.47
2019-03-21T11:43:32.744Z,7.57
2019-03-21T11:45:58.900Z,7.10
2019-03-21T11:48:25.030Z,8.77
2019-03-21T11:50:51.380Z,7.90
2019-03-21T11:53:17.514Z,7.40
2019-03-21T11:55:43.794Z,7.67
2019-03-21T11:58:10.123Z,8.00
2019-03-21T12:00:43.520Z,7.67
2019-03-21T12:03:04.532Z,7.23
2019-03-21T12:05:32.063Z,8.03
2019-03-21T12:07:58.202Z,7.77
2019-03-21T12:10:24.634Z,7.73
2019-03-21T12:12:50.789Z,6.80
2019-03-21T12:15:16.923Z,6.70
2019-03-21T12:17:43.067Z,7.73
2019-03-21T12:20:15.479Z,8.30
2019-03-21T12:22:41.637Z,9.17
2019-03-21T12:25:08.579Z,8.87
2019-03-21T12:27:34.729Z,8.80
2019-03-21T12:30:01.208Z,9.10
2019-03-21T12:32:27.363Z,7.90
2019-03-21T12:34:53.499Z,6.40
2019-03-21T12:37:19.651Z,6.57
2019-03-21T12:39:45.794Z,6.87
2019-03-21T12:42:11.958Z,9.37
2019-03-21T12:44:38.382Z,8.60
2019-03-21T12:47:04.523Z,8.30
2019-03-21T12:49:30.663Z,7.30
2019-03-21T12:51:56.811Z,9.83
2019-03-21T12:54:22.949Z,8.83
2019-03-21T12:56:49.115Z,8.37
2019-03-21T12:59:15.262Z,9.00
2019-03-21T13:01:41.687Z,11.53
2019-03-21T13:04:08.107Z,11.00
2019-03-21T13:06:34.272Z,13.13
2019-03-21T13:09:00.419Z,13.70
2019-03-21T13:11:28.474Z,12.03
2019-03-21T13:13:55.620Z,10.33
2019-03-21T13:16:21.773Z,11.23
2019-03-21T13:18:47.929Z,12.43
2019-03-21T13:21:14.097Z,13.97
2019-03-21T13:23:40.408Z,14.53
2019-03-21T13:26:06.562Z,15.03
2019-03-21T13:28:32.715Z,14.20
2019-03-21T13:30:58.888Z,13.93
2019-03-21T13:33:25.033Z,14.80
2019-03-21T13:35:51.309Z,10.90
2019-03-21T13:38:17.631Z,11.43
2019-03-21T13:40:43.770Z,14.23
2019-03-21T13:43:11.283Z,13.67
2019-03-21T13:45:38.751Z,13.57
2019-03-21T13:48:04.899Z,14.63
2019-03-21T13:50:31.364Z,15.40
2019-03-21T13:53:04.892Z,15.37
2019-03-21T13:55:25.783Z,14.93
2019-03-21T13:57:52.449Z,15.53
2019-03-21T14:00:20.055Z,15.57
2019-03-21T14:02:46.212Z,15.13
2019-03-21T14:05:12.548Z,14.77
2019-03-21T14:07:38.704Z,16.03
2019-03-21T14:10:06.456Z,16.10
2019-03-21T14:12:32.947Z,17.90
2019-03-21T14:14:59.083Z,16.13
2019-03-21T14:17:25.246Z,16.23
2019-03-21T14:19:51.473Z,16.23
2019-03-21T14:22:17.694Z,16.10
2019-03-21T14:24:43.848Z,15.90
2019-03-21T14:27:10.240Z,16.27
2019-03-21T14:29:36.660Z,16.20
2019-03-21T14:32:02.908Z,15.93
2019-03-21T14:34:29.132Z,16.43
2019-03-21T14:36:55.279Z,15.90
2019-03-21T14:39:21.763Z,17.03
2019-03-21T14:41:47.910Z,16.93
2019-03-21T14:44:14.091Z,19.37
2019-03-21T14:46:40.222Z,20.53
2019-03-21T14:49:06.385Z,18.57
2019-03-21T14:51:32.625Z,19.43
2019-03-21T14:53:58.783Z,18.73
2019-03-21T14:56:24.935Z,20.07
2019-03-21T14:58:51.108Z,18.97
2019-03-21T15:01:17.251Z,20.27
2019-03-21T15:03:43.444Z,20.57
2019-03-21T15:06:09.559Z,19.37
2019-03-21T15:08:35.730Z,17.80
2019-03-21T15:11:02.179Z,17.33
2019-03-21T15:13:28.412Z,17.73
2019-03-21T15:15:54.683Z,19.00
2019-03-21T15:18:20.859Z,19.07
2019-03-21T15:20:47.019Z,19.00
2019-03-21T15:23:13.159Z,18.53
2019-03-21T15:25:39.340Z,18.17
2019-03-21T15:28:05.648Z,17.90
2019-03-21T15:30:31.790Z,17.33
2019-03-21T15:32:57.934Z,17.87
2019-03-21T15:35:24.414Z,18.73
2019-03-21T15:37:50.548Z,19.30
2019-03-21T15:40:16.703Z,19.80
2019-03-21T15:42:42.961Z,17.90
2019-03-21T15:45:22.152Z,18.43
2019-03-21T15:47:39.546Z,18.97
2019-03-21T15:50:08.402Z,19.37
2019-03-21T15:52:35.571Z,19.10
2019-03-21T15:55:02.922Z,19.93
2019-03-21T15:57:31.812Z,19.17
2019-03-21T15:59:57.236Z,19.00
2019-03-21T16:02:23.387Z,19.60
2019-03-21T16:04:49.534Z,18.37
2019-03-21T16:07:16.695Z,17.77
2019-03-21T16:09:42.850Z,18.50
2019-03-21T16:12:09.022Z,19.13
2019-03-21T16:14:35.181Z,18.97
2019-03-21T16:17:01.318Z,18.77
2019-03-21T16:19:27.475Z,17.93
2019-03-21T16:21:53.639Z,18.67
2019-03-21T16:24:19.786Z,18.50
2019-03-21T16:26:45.939Z,18.57
2019-03-21T16:29:12.079Z,16.97
2019-03-21T16:31:38.515Z,18.10
2019-03-21T16:34:04.667Z,17.53
2019-03-21T16:36:30.826Z,17.67
2019-03-21T16:38:56.967Z,18.40
2019-03-21T16:41:23.115Z,18.13
2019-03-21T16:43:49.762Z,18.20
2019-03-21T16:46:16.140Z,17.73
2019-03-21T16:48:42.281Z,16.30
2019-03-21T16:51:08.441Z,18.10
2019-03-21T16:53:35.692Z,18.63
2019-03-21T16:56:01.837Z,19.20
2019-03-21T16:58:27.985Z,20.47
2019-03-21T17:00:54.157Z,20.47
2019-03-21T17:03:20.307Z,20.50
2019-03-21T17:05:46.487Z,20.50
2019-03-21T17:08:12.743Z,22.33
2019-03-21T17:10:38.977Z,23.13
2019-03-21T17:13:06.406Z,22.97
2019-03-21T17:15:33.188Z,25.40
2019-03-21T17:17:59.337Z,22.10
2019-03-21T17:20:25.476Z,22.83
2019-03-21T17:22:51.622Z,22.87
2019-03-21T17:25:17.892Z,22.40
2019-03-21T17:27:44.045Z,22.20
2019-03-21T17:30:14.644Z,22.10
2019-03-21T17:32:40.807Z,22.17
2019-03-21T17:35:07.259Z,22.53
2019-03-21T17:37:33.784Z,23.77
2019-03-21T17:39:59.931Z,23.67
2019-03-21T17:42:26.072Z,23.67
2019-03-21T17:44:52.240Z,26.17
2019-03-21T17:47:18.383Z,26.53
2019-03-21T17:49:44.541Z,24.40
2019-03-21T17:52:10.701Z,24.80
2019-03-21T17:54:41.306Z,25.03
2019-03-21T17:57:04.902Z,23.87
2019-03-21T17:59:31.079Z,24.97
2019-03-21T18:01:58.133Z,25.83
2019-03-21T18:04:24.774Z,25.60
2019-03-21T18:06:50.926Z,26.10
2019-03-21T18:09:17.080Z,27.03
2019-03-21T18:11:43.249Z,26.40
2019-03-21T18:14:10.394Z,25.82
2019-03-21T18:16:36.553Z,29.10
2019-03-21T18:19:02.903Z,27.33
2019-03-21T18:21:29.056Z,28.00
2019-03-21T18:23:55.209Z,26.40
2019-03-21T18:26:21.345Z,25.93
2019-03-21T18:28:47.835Z,26.93
2019-03-21T18:31:13.979Z,24.53
2019-03-21T18:33:40.128Z,27.27
2019-03-21T18:36:06.519Z,27.70
2019-03-21T18:38:35.573Z,26.77
2019-03-21T18:41:02.065Z,26.50
2019-03-21T18:43:28.251Z,25.53
2019-03-21T18:45:54.391Z,28.60
2019-03-21T18:48:20.661Z,26.73
2019-03-21T18:50:46.996Z,28.30
2019-03-21T18:53:13.160Z,26.90
2019-03-21T18:55:39.645Z,27.03
2019-03-21T18:58:05.851Z,29.40
2019-03-21T19:00:32.280Z,29.80
2019-03-21T19:03:00.584Z,31.63
2019-03-21T19:05:26.497Z,32.80
2019-03-21T19:07:52.656Z,32.93
2019-03-21T19:10:19.035Z,31.90
2019-03-21T19:12:45.189Z,33.10
2019-03-21T19:15:15.423Z,31.63
2019-03-21T19:17:41.594Z,31.90
2019-03-21T19:20:10.851Z,33.27
2019-03-21T19:22:37.022Z,33.57
2019-03-21T19:25:17.539Z,34.77
2019-03-21T19:27:33.654Z,34.77
2019-03-21T19:29:59.813Z,35.70
2019-03-21T19:32:25.980Z,35.97
2019-03-21T19:34:52.128Z,35.60
2019-03-21T19:37:18.639Z,38.57
2019-03-21T19:39:44.788Z,38.90
2019-03-21T19:42:10.934Z,35.67
2019-03-21T19:44:37.096Z,37.63
2019-03-21T19:47:03.250Z,37.30
2019-03-21T19:49:29.438Z,37.67
2019-03-21T19:51:55.628Z,35.53
2019-03-21T19:54:21.783Z,40.37
2019-03-21T19:56:47.926Z,36.13
2019-03-21T19:59:15.246Z,37.37
2019-03-21T20:01:41.446Z,35.57
2019-03-21T20:04:07.600Z,38.37
2019-03-21T20:06:33.978Z,37.37
2019-03-21T20:09:00.366Z,37.50
2019-03-21T20:11:26.514Z,39.30
2019-03-21T20:13:52.969Z,39.30
2019-03-21T20:16:19.122Z,34.93
2019-03-21T20:18:45.285Z,39.93
2019-03-21T20:21:11.854Z,38.47
2019-03-21T20:23:38.095Z,40.17
2019-03-21T20:26:05.583Z,38.73
2019-03-21T20:28:31.716Z,37.27
2019-03-21T20:30:57.866Z,38.63
2019-03-21T20:33:24.361Z,35.33
2019-03-21T20:35:50.486Z,37.27
2019-03-21T20:38:16.641Z,36.90
2019-03-21T20:40:42.803Z,38.53
2019-03-21T20:43:08.940Z,36.93
2019-03-21T20:45:35.398Z,38.13
2019-03-21T20:48:01.538Z,36.53
2019-03-21T20:50:27.707Z,36.27
2019-03-21T20:52:53.838Z,37.53
2019-03-21T20:55:19.989Z,37.53
2019-03-21T20:57:46.147Z,36.90
2019-03-21T21:00:22.577Z,37.73
2019-03-21T21:02:50.919Z,37.97
2019-03-21T21:05:17.070Z,37.93
2019-03-21T21:07:43.239Z,40.10
2019-03-21T21:10:12.291Z,40.47
2019-03-21T21:12:38.733Z,39.93
2019-03-21T21:15:06.453Z,40.30
2019-03-21T21:17:32.602Z,39.13
2019-03-21T21:19:58.752Z,40.83
2019-03-21T21:22:24.915Z,40.83
2019-03-21T21:24:51.046Z,39.27
2019-03-21T21:27:17.232Z,41.03
2019-03-21T21:29:43.370Z,41.13
2019-03-21T21:32:09.555Z,41.93
2019-03-21T21:34:35.845Z,40.27
2019-03-21T21:37:02.447Z,41.93
2019-03-21T21:39:28.595Z,43.83
2019-03-21T21:41:54.755Z,43.33
2019-03-21T21:44:20.911Z,44.57
2019-03-21T21:46:47.062Z,45.23
2019-03-21T21:49:13.302Z,45.37
2019-03-21T21:51:39.568Z,43.53
2019-03-21T21:54:05.703Z,42.87
2019-03-21T21:56:31.852Z,45.83
2019-03-21T21:58:58.303Z,46.73
2019-03-21T22:01:24.443Z,46.53
2019-03-21T22:03:50.587Z,43.20
2019-03-21T22:06:16.742Z,44.43
2019-03-21T22:08:42.897Z,44.23
2019-03-21T22:11:09.062Z,45.80
2019-03-21T22:13:35.226Z,46.07
2019-03-21T22:16:01.386Z,49.53
2019-03-21T22:18:27.747Z,49.70
2019-03-21T22:20:53.903Z,44.90
2019-03-21T22:23:20.056Z,45.70
2019-03-21T22:25:46.512Z,48.93
2019-03-21T22:28:12.734Z,49.83
2019-03-21T22:30:38.904Z,51.93
2019-03-21T22:33:05.055Z,49.33
2019-03-21T22:35:31.194Z,57.87
2019-03-21T22:37:58.451Z,55.73
2019-03-21T22:40:24.596Z,54.87
2019-03-21T22:42:50.733Z,56.87
2019-03-21T22:45:16.880Z,57.30
2019-03-21T22:47:43.271Z,57.37
2019-03-21T22:50:14.956Z,57.87
2019-03-21T22:52:43.295Z,57.60
2019-03-21T22:55:09.749Z,61.80
2019-03-21T22:57:35.991Z,58.17
2019-03-21T23:00:05.647Z,57.57
2019-03-21T23:02:33.599Z,59.37
2019-03-21T23:04:59.744Z,62.53
2019-03-21T23:07:25.893Z,60.40
2019-03-21T23:09:52.042Z,59.53
2019-03-21T23:12:18.214Z,61.17
2019-03-21T23:14:44.502Z,63.23
2019-03-21T23:17:10.651Z,64.53
2019-03-21T23:19:36.802Z,63.87
2019-03-21T23:22:03.059Z,61.37
2019-03-21T23:24:37.608Z,63.67
2019-03-21T23:27:04.476Z,61.87
2019-03-21T23:29:30.618Z,63.87
2019-03-21T23:31:56.956Z,63.17
2019-03-21T23:34:23.299Z,61.17
2019-03-21T23:36:50.043Z,64.13
2019-03-21T23:39:16.186Z,62.33
2019-03-21T23:41:42.336Z,59.67
2019-03-21T23:44:08.486Z,59.57
2019-03-21T23:46:34.657Z,59.23
2019-03-21T23:49:00.794Z,60.97
2019-03-21T23:51:26.936Z,57.80
2019-03-21T23:53:53.087Z,59.63
2019-03-21T23:56:19.234Z,61.10
2019-03-21T23:58:45.399Z,57.57
